Time;durP1;ratioP1;P1;durP2;ratioP2;P2;SDS_P1;SDS_P2;PMS_P1;PMS_P2;Temp;Humidity;BMP_temperature;BMP_pressure;BME280_temperature;BME280_humidity;BME280_pressure;Samples;Min_cycle;Max_cycle;Signal;HPM_P1;HPM_P2
2023/05/07 00:00:08;;;;;;;;;;;;;;;16.16;56.84;100999.78;5094212;28;1113;-57
2023/05/07 00:02:35;;;;;;;;;;;;;;;17.51;55.86;100993.63;5083062;28;1158;-55
2023/05/07 00:05:02;;;;;;;;;;;;;;;16.88;56.68;101007.50;5094362;28;1015;-56
2023/05/07 00:07:27;;;;;;;;;;;;;;;16.50;57.16;101006.81;5081981;28;1902;-55
2023/05/07 00:09:53;;;;;;;;;;;;;;;16.36;56.85;101006.47;5075465;28;1030;-56
2023/05/07 00:12:19;;;;;;;;;;;;;;;16.69;57.39;101005.25;5078382;28;1090;-55
2023/05/07 00:14:45;;;;;;;;;;;;;;;17.65;55.10;101007.66;5079644;28;1031;-57
2023/05/07 00:17:10;;;;;;;;;;;;;;;16.89;56.64;101010.00;5091120;28;1181;-55
2023/05/07 00:19:36;;;;;;;;;;;;;;;16.56;56.95;101008.47;5079782;28;1130;-55
2023/05/07 00:22:02;;;;;;;;;;;;;;;16.37;56.83;101003.47;5091594;28;1050;-57
2023/05/07 00:24:27;;;;;;;;;;;;;;;16.53;57.28;101007.09;5091530;28;1105;-54
2023/05/07 00:26:53;;;;;;;;;;;;;;;17.68;55.34;101000.78;5098474;28;1914;-56
2023/05/07 00:29:18;;;;;;;;;;;;;;;16.85;56.68;101008.06;5097967;28;1038;-57
2023/05/07 00:31:44;;;;;;;;;;;;;;;16.56;56.82;101003.00;5055440;28;1145;-56
2023/05/07 00:34:10;;;;;;;;;;;;;;;16.38;56.85;100999.63;5085189;28;1134;-56
2023/05/07 00:36:35;;;;;;;;;;;;;;;16.38;57.05;101005.13;5080237;28;1309;-57
2023/05/07 00:39:03;;;;;;;;;;;;;;;17.77;55.28;101007.38;5066938;28;1285;-55
2023/05/07 00:41:30;;;;;;;;;;;;;;;16.95;56.87;101016.34;5098972;28;1441;-53
2023/05/07 00:43:56;;;;;;;;;;;;;;;16.64;56.83;101018.94;5098498;28;1101;-56
2023/05/07 00:46:22;;;;;;;;;;;;;;;16.43;56.66;101020.78;5091352;28;1247;-56
2023/05/07 00:48:47;;;;;;;;;;;;;;;16.31;56.67;101018.22;5073524;28;1906;-56
2023/05/07 00:51:13;;;;;;;;;;;;;;;16.20;56.52;101022.84;5080329;28;1204;-53
2023/05/07 00:53:39;;;;;;;;;;;;;;;17.37;56.10;101031.00;5084250;28;1071;-55
2023/05/07 00:56:06;;;;;;;;;;;;;;;17.05;56.64;101032.03;5085355;28;1253;-57
2023/05/07 00:58:32;;;;;;;;;;;;;;;16.61;56.88;101024.97;5079470;28;1108;-56
2023/05/07 01:00:58;;;;;;;;;;;;;;;16.43;56.70;101029.00;5078087;28;888;-57
2023/05/07 01:03:23;;;;;;;;;;;;;;;16.23;56.86;101032.47;5079015;28;1134;-56
2023/05/07 01:05:49;;;;;;;;;;;;;;;16.47;57.25;101032.06;5096958;28;1108;-55
2023/05/07 01:08:14;;;;;;;;;;;;;;;17.59;55.40;101028.81;5091331;28;1980;-54
2023/05/07 01:10:42;;;;;;;;;;;;;;;16.79;56.95;101039.31;5060386;28;1130;-55
2023/05/07 01:13:11;;;;;;;;;;;;;;;16.45;57.23;101043.28;5075292;28;1151;-55
2023/05/07 01:15:37;;;;;;;;;;;;;;;16.29;56.70;101044.31;5071251;28;1115;-55
2023/05/07 01:18:03;;;;;;;;;;;;;;;17.52;55.97;101039.28;5073801;28;1090;-56
2023/05/07 01:20:33;;;;;;;;;;;;;;;17.00;56.74;101043.84;5059723;28;1141;-56
2023/05/07 01:22:59;;;;;;;;;;;;;;;16.58;56.91;101042.00;5072728;28;1234;-56
2023/05/07 01:25:25;;;;;;;;;;;;;;;16.41;56.86;101034.78;5051630;28;1090;-53
2023/05/07 01:27:54;;;;;;;;;;;;;;;16.26;56.73;101034.69;5047116;28;1980;-54
2023/05/07 01:30:24;;;;;;;;;;;;;;;16.33;56.83;101027.03;5059845;28;1162;-56
2023/05/07 01:32:56;;;;;;;;;;;;;;;17.70;55.38;101031.59;5076392;28;1147;-56
2023/05/07 01:35:22;;;;;;;;;;;;;;;16.89;56.72;101031.97;5086589;28;1217;-58
2023/05/07 01:37:48;;;;;;;;;;;;;;;16.51;57.06;101034.00;5077040;28;1162;-56
2023/05/07 01:40:13;;;;;;;;;;;;;;;16.40;56.53;101035.84;5079253;28;1129;-57
2023/05/07 01:42:39;;;;;;;;;;;;;;;16.45;57.11;101036.97;5097069;28;1070;-56
2023/05/07 01:45:05;;;;;;;;;;;;;;;17.63;55.37;101037.38;5079274;28;1166;-58
2023/05/07 01:47:31;;;;;;;;;;;;;;;16.87;56.68;101044.31;5040028;28;1963;-57
2023/05/07 01:49:56;;;;;;;;;;;;;;;16.56;56.69;101041.41;5048210;28;965;-55
2023/05/07 01:52:22;;;;;;;;;;;;;;;16.38;56.64;101040.78;5038311;28;1143;-57
2023/05/07 01:54:48;;;;;;;;;;;;;;;17.28;56.50;101033.47;5037287;28;1094;-57
2023/05/07 01:57:13;;;;;;;;;;;;;;;17.21;56.27;101038.41;5049975;28;1095;-52
2023/05/07 01:59:39;;;;;;;;;;;;;;;16.68;56.83;101031.06;5037229;28;1067;-54
2023/05/07 02:02:05;;;;;;;;;;;;;;;16.50;56.82;101018.63;5041546;28;1047;-56
2023/05/07 02:04:31;;;;;;;;;;;;;;;16.27;56.58;101021.78;5055655;28;1249;-55
2023/05/07 02:06:57;;;;;;;;;;;;;;;16.18;56.56;101016.78;5049028;28;1906;-55
2023/05/07 02:09:23;;;;;;;;;;;;;;;17.54;55.80;101012.31;5055352;28;1228;-56
2023/05/07 02:11:50;;;;;;;;;;;;;;;17.02;56.34;101014.16;5037729;28;1212;-56
2023/05/07 02:14:17;;;;;;;;;;;;;;;16.57;56.99;101010.13;5035565;28;1163;-55
2023/05/07 02:16:43;;;;;;;;;;;;;;;16.40;56.77;101016.63;5035082;28;1119;-56
2023/05/07 02:19:11;;;;;;;;;;;;;;;16.25;56.56;101011.88;5047600;28;1389;-56
2023/05/07 02:21:37;;;;;;;;;;;;;;;16.15;56.39;101013.75;5052778;28;1121;-56
2023/05/07 02:24:02;;;;;;;;;;;;;;;17.00;57.00;101016.38;5045695;28;1121;-57
2023/05/07 02:26:28;;;;;;;;;;;;;;;17.30;55.89;101014.78;5054279;28;1416;-56
2023/05/07 02:28:54;;;;;;;;;;;;;;;16.65;57.12;101017.88;5044527;28;1914;-56
2023/05/07 02:31:20;;;;;;;;;;;;;;;16.42;56.80;101008.97;5039144;28;1284;-56
2023/05/07 02:33:45;;;;;;;;;;;;;;;16.25;56.52;101013.81;5044249;28;1366;-54
2023/05/07 02:36:11;;;;;;;;;;;;;;;17.32;56.40;101014.50;5044394;28;1120;-56
2023/05/07 02:39:03;;;;;;;;;;;;;;;17.02;56.53;101013.34;5044014;28;1360;-57
2023/05/07 02:41:29;;;;;;;;;;;;;;;16.56;56.95;101016.72;5049188;28;1111;-56
2023/05/07 02:43:54;;;;;;;;;;;;;;;16.32;57.02;101014.41;5035868;28;1113;-57
2023/05/07 02:46:20;;;;;;;;;;;;;;;16.66;57.33;101021.44;5053162;28;1211;-56
2023/05/07 02:48:51;;;;;;;;;;;;;;;17.51;55.34;101012.88;5071143;28;1969;-56
2023/05/07 02:51:20;;;;;;;;;;;;;;;16.82;56.79;101017.66;5066196;28;1423;-53
2023/05/07 02:53:45;;;;;;;;;;;;;;;16.53;56.59;101023.56;5063063;28;1229;-56
2023/05/07 02:56:11;;;;;;;;;;;;;;;16.33;56.78;101029.78;5058058;28;1079;-55
2023/05/07 02:58:39;;;;;;;;;;;;;;;17.03;56.87;101029.56;5064401;28;991;-56
2023/05/07 03:01:05;;;;;;;;;;;;;;;17.43;55.70;101025.25;5078017;28;1192;-56
2023/05/07 03:03:38;;;;;;;;;;;;;;;16.74;56.91;101024.47;5075009;28;1350;-56
2023/05/07 03:06:03;;;;;;;;;;;;;;;16.48;56.87;101023.56;5089359;28;1114;-57
2023/05/07 03:08:29;;;;;;;;;;;;;;;16.32;56.74;101028.13;5079082;28;1910;-57
2023/05/07 03:10:55;;;;;;;;;;;;;;;16.28;56.24;101023.44;5095873;28;1122;-56
2023/05/07 03:13:21;;;;;;;;;;;;;;;17.38;56.28;101024.41;5074506;28;1303;-57
2023/05/07 03:15:47;;;;;;;;;;;;;;;17.07;56.45;101027.91;5048461;28;1629;-57
2023/05/07 03:18:13;;;;;;;;;;;;;;;16.64;57.04;101034.59;5071265;28;1103;-56
2023/05/07 03:20:38;;;;;;;;;;;;;;;16.46;56.70;101035.88;5086042;28;1098;-56
2023/05/07 03:23:04;;;;;;;;;;;;;;;16.26;56.57;101031.94;5058547;28;1182;-57
2023/05/07 03:25:29;;;;;;;;;;;;;;;17.62;55.58;101035.69;5080361;28;1150;-53
2023/05/07 03:27:55;;;;;;;;;;;;;;;16.97;56.56;101033.41;5092090;28;1969;-52
2023/05/07 03:30:24;;;;;;;;;;;;;;;16.57;56.84;101046.66;5067487;28;1389;-50
2023/05/07 03:32:50;;;;;;;;;;;;;;;16.39;56.61;101045.16;5093366;28;1154;-49
2023/05/07 03:35:16;;;;;;;;;;;;;;;16.30;56.67;101045.94;5095923;28;1046;-52
2023/05/07 03:37:42;;;;;;;;;;;;;;;16.43;56.96;101040.81;5077442;28;1122;-51
2023/05/07 03:40:10;;;;;;;;;;;;;;;17.38;55.96;101049.97;5077397;28;1517;-50
2023/05/07 03:42:42;;;;;;;;;;;;;;;16.68;57.15;101054.94;5059670;28;1183;-51
2023/05/07 03:45:08;;;;;;;;;;;;;;;16.43;56.91;101053.72;5057819;28;1616;-48
2023/05/07 03:47:34;;;;;;;;;;;;;;;16.55;57.27;101058.97;5060040;28;1965;-48
2023/05/07 03:50:00;;;;;;;;;;;;;;;17.63;55.07;101062.13;5072406;28;1307;-54
2023/05/07 03:52:26;;;;;;;;;;;;;;;16.80;56.79;101065.69;5095058;28;1082;-53
2023/05/07 03:54:54;;;;;;;;;;;;;;;16.51;56.60;101069.69;5062040;28;1367;-50
2023/05/07 03:57:20;;;;;;;;;;;;;;;16.36;56.52;101069.59;5081408;28;1106;-46
2023/05/07 03:59:47;;;;;;;;;;;;;;;16.20;56.67;101072.22;5081342;28;1509;-52
2023/05/07 04:02:12;;;;;;;;;;;;;;;17.09;56.46;101072.44;5065644;28;1142;-50
2023/05/07 04:04:38;;;;;;;;;;;;;;;17.33;56.05;101080.19;5060742;28;1262;-52
2023/05/07 04:07:04;;;;;;;;;;;;;;;16.71;56.93;101079.13;5066973;28;1967;-50
2023/05/07 04:09:35;;;;;;;;;;;;;;;16.49;56.87;101087.50;5061400;28;1280;-49
2023/05/07 04:12:01;;;;;;;;;;;;;;;16.31;56.69;101077.78;5078833;28;1149;-51
2023/05/07 04:14:26;;;;;;;;;;;;;;;16.36;57.28;101077.81;5089009;28;1082;-49
2023/05/07 04:16:53;;;;;;;;;;;;;;;17.69;55.18;101083.00;5061860;28;1204;-50
2023/05/07 04:19:19;;;;;;;;;;;;;;;16.91;56.53;101081.16;5061188;28;1315;-49
2023/05/07 04:21:47;;;;;;;;;;;;;;;16.51;57.13;101085.31;5060841;28;1214;-51
2023/05/07 04:24:13;;;;;;;;;;;;;;;16.34;57.00;101080.84;5079187;28;1137;-51
2023/05/07 04:26:40;;;;;;;;;;;;;;;16.20;56.96;101074.97;5083488;28;1133;-49
2023/05/07 04:29:06;;;;;;;;;;;;;;;16.16;56.49;101089.47;5060815;28;1914;-49
2023/05/07 04:31:33;;;;;;;;;;;;;;;16.76;57.03;101088.22;5060711;28;1159;-48
2023/05/07 04:33:58;;;;;;;;;;;;;;;17.30;55.83;101085.41;5060864;28;1185;-46
2023/05/07 04:36:27;;;;;;;;;;;;;;;16.56;57.17;101083.44;5060729;28;1221;-48
2023/05/07 04:38:58;;;;;;;;;;;;;;;16.34;57.01;101090.97;5060356;28;1329;-49
2023/05/07 04:41:24;;;;;;;;;;;;;;;16.26;57.28;101084.06;5078564;28;1034;-49
2023/05/07 04:43:49;;;;;;;;;;;;;;;17.60;55.21;101093.72;5057999;28;1692;-49
2023/05/07 04:46:17;;;;;;;;;;;;;;;16.85;56.66;101095.94;5060681;28;1178;-48
2023/05/07 04:48:42;;;;;;;;;;;;;;;16.51;56.75;101090.78;5060558;28;1921;-51
2023/05/07 04:51:08;;;;;;;;;;;;;;;16.38;56.74;101090.19;5065303;28;1205;-51
2023/05/07 04:53:34;;;;;;;;;;;;;;;16.19;56.49;101102.69;5065730;28;1257;-51
2023/05/07 04:55:59;;;;;;;;;;;;;;;16.69;56.91;101101.34;5078874;28;1213;-49
2023/05/07 04:58:31;;;;;;;;;;;;;;;17.31;55.74;101092.56;5060099;28;1294;-50
2023/05/07 05:00:57;;;;;;;;;;;;;;;16.62;57.00;101094.44;5060307;28;1087;-51
2023/05/07 05:03:23;;;;;;;;;;;;;;;17.33;55.84;101095.88;5072043;28;1235;-51
2023/05/07 05:05:49;;;;;;;;;;;;;;;16.63;55.00;101096.91;5061409;28;1229;-49
2023/05/07 05:08:15;;;;;;;;;;;;;;;16.32;53.30;101102.22;5051558;28;1976;-51
2023/05/07 05:10:43;;;;;;;;;;;;;;;16.12;52.22;101099.31;5060174;28;1282;-52
2023/05/07 05:13:09;;;;;;;;;;;;;;;16.03;50.94;101097.06;5046550;28;1219;-49
2023/05/07 05:15:35;;;;;;;;;;;;;;;15.96;50.36;101101.94;5084677;28;919;-53
2023/05/07 05:18:01;;;;;;;;;;;;;;;16.20;51.47;101102.41;5060341;28;1030;-48
2023/05/07 05:20:27;;;;;;;;;;;;;;;16.80;53.75;101115.94;5060182;28;1226;-54
2023/05/07 05:22:53;;;;;;;;;;;;;;;16.33;52.38;101106.63;5059608;28;1082;-50
2023/05/07 05:25:18;;;;;;;;;;;;;;;16.15;51.15;101109.78;5059672;28;1054;-51
2023/05/07 05:27:45;;;;;;;;;;;;;;;16.85;52.82;101109.69;5060640;28;1972;-51
2023/05/07 05:30:11;;;;;;;;;;;;;;;16.43;52.63;101111.34;5067992;28;1205;-47
2023/05/07 05:32:38;;;;;;;;;;;;;;;16.24;50.97;101102.69;5064989;28;1142;-46
2023/05/07 05:35:04;;;;;;;;;;;;;;;16.92;52.16;101110.28;5059779;28;1320;-49
2023/05/07 05:37:31;;;;;;;;;;;;;;;16.67;52.26;101109.03;5059569;28;1149;-46
2023/05/07 05:39:58;;;;;;;;;;;;;;;16.38;50.98;101116.78;5044265;28;1895;-47
2023/05/07 05:42:25;;;;;;;;;;;;;;;16.25;49.85;101104.38;5055123;28;1303;-51
2023/05/07 05:44:51;;;;;;;;;;;;;;;16.96;51.52;101108.66;5077428;28;1142;-51
2023/05/07 05:47:16;;;;;;;;;;;;;;;16.39;51.31;101110.22;5039847;28;1914;-47
2023/05/07 05:49:43;;;;;;;;;;;;;;;16.28;50.30;101108.50;5036135;28;1167;-49
2023/05/07 05:52:11;;;;;;;;;;;;;;;16.19;49.25;101121.88;5021613;28;1214;-52
2023/05/07 05:54:37;;;;;;;;;;;;;;;16.92;50.61;101124.03;5037820;28;1051;-50
2023/05/07 05:57:04;;;;;;;;;;;;;;;16.55;51.17;101124.88;5035692;28;1312;-48
2023/05/07 05:59:30;;;;;;;;;;;;;;;16.28;50.22;101125.78;5035670;28;1099;-49
2023/05/07 06:01:56;;;;;;;;;;;;;;;16.49;50.61;101125.94;5036049;28;1093;-51
2023/05/07 06:04:22;;;;;;;;;;;;;;;16.74;51.10;101128.81;5046528;28;1152;-50
2023/05/07 06:06:48;;;;;;;;;;;;;;;16.47;50.02;101128.13;5042900;28;1910;-50
2023/05/07 06:09:15;;;;;;;;;;;;;;;17.19;50.78;101126.59;5026187;28;1183;-50
2023/05/07 06:11:43;;;;;;;;;;;;;;;16.54;50.61;101126.78;5031951;28;1103;-49
2023/05/07 06:14:09;;;;;;;;;;;;;;;16.48;49.60;101122.38;5035845;28;1496;-52
2023/05/07 06:16:37;;;;;;;;;;;;;;;16.27;49.16;101124.16;5021715;28;1516;-52
2023/05/07 06:19:05;;;;;;;;;;;;;;;16.18;48.29;101126.53;5026348;28;1407;-47
2023/05/07 06:21:31;;;;;;;;;;;;;;;16.06;48.25;101123.97;5035585;28;1103;-50
2023/05/07 06:23:56;;;;;;;;;;;;;;;16.54;49.20;101140.53;5035638;28;1338;-51
2023/05/07 06:26:22;;;;;;;;;;;;;;;16.42;49.61;101142.63;5037182;28;1133;-49
2023/05/07 06:28:48;;;;;;;;;;;;;;;16.32;49.04;101131.59;5045678;28;1913;-49
2023/05/07 06:31:15;;;;;;;;;;;;;;;17.10;49.67;101133.72;5035243;28;1161;-49
2023/05/07 06:33:44;;;;;;;;;;;;;;;16.97;50.42;101131.44;5035616;28;1174;-51
2023/05/07 06:36:10;;;;;;;;;;;;;;;16.50;50.03;101120.19;5035217;28;1066;-50
2023/05/07 06:38:38;;;;;;;;;;;;;;;16.41;48.87;101124.50;5035255;28;1147;-53
2023/05/07 06:41:05;;;;;;;;;;;;;;;16.26;48.38;101127.97;5035463;28;1311;-53
2023/05/07 06:43:30;;;;;;;;;;;;;;;16.77;49.55;101121.97;5035107;28;1027;-50
2023/05/07 06:46:13;;;;;;;;;;;;;;;16.62;50.03;101125.47;5035453;28;1176;-52
2023/05/07 06:48:39;;;;;;;;;;;;;;;16.48;49.24;101125.13;5035330;28;1967;-54
2023/05/07 06:51:05;;;;;;;;;;;;;;;16.23;48.81;101123.84;5039925;28;1234;-55
2023/05/07 06:53:31;;;;;;;;;;;;;;;17.02;50.13;101129.53;5041869;28;1662;-53
2023/05/07 06:55:59;;;;;;;;;;;;;;;16.56;49.67;101126.53;5034856;28;1190;-48
2023/05/07 06:58:25;;;;;;;;;;;;;;;16.39;49.19;101119.28;5035880;28;1066;-53
2023/05/07 07:00:51;;;;;;;;;;;;;;;16.35;48.06;101120.06;5034900;28;1186;-50
2023/05/07 07:03:16;;;;;;;;;;;;;;;16.25;47.82;101118.09;5041779;28;1082;-53
2023/05/07 07:05:43;;;;;;;;;;;;;;;16.22;47.45;101113.13;5035527;28;1171;-51
2023/05/07 07:08:09;;;;;;;;;;;;;;;16.58;48.38;101118.88;5042715;28;1973;-52
2023/05/07 07:10:35;;;;;;;;;;;;;;;16.67;49.59;101128.25;5034863;28;1257;-50
2023/05/07 07:13:02;;;;;;;;;;;;;;;16.30;49.33;101129.09;5035114;28;1206;-49
2023/05/07 07:15:28;;;;;;;;;;;;;;;16.87;49.31;101126.69;5041426;28;1103;-49
2023/05/07 07:17:55;;;;;;;;;;;;;;;16.65;49.65;101130.44;5027596;28;1394;-51
2023/05/07 07:20:22;;;;;;;;;;;;;;;16.40;49.01;101131.91;5036785;28;1198;-51
2023/05/07 07:22:47;;;;;;;;;;;;;;;16.35;48.17;101133.78;5038918;28;1281;-51
2023/05/07 07:25:15;;;;;;;;;;;;;;;17.87;49.53;101139.41;5039008;28;1286;-53
2023/05/07 07:27:41;;;;;;;;;;;;;;;16.87;50.44;101135.78;5045024;28;1989;-52
2023/05/07 07:30:07;;;;;;;;;;;;;;;16.66;49.47;101126.59;5038906;28;1377;-51
2023/05/07 07:32:35;;;;;;;;;;;;;;;16.56;48.70;101143.00;5038457;28;1213;-54
2023/05/07 07:35:01;;;;;;;;;;;;;;;17.21;50.00;101123.59;5038875;28;1158;-50
2023/05/07 07:37:27;;;;;;;;;;;;;;;16.74;49.48;101134.31;5038844;28;1211;-49
2023/05/07 07:39:53;;;;;;;;;;;;;;;16.57;48.77;101133.69;5032125;28;1311;-49
2023/05/07 07:42:20;;;;;;;;;;;;;;;17.65;49.37;101131.41;5033032;28;1144;-52
2023/05/07 07:44:46;;;;;;;;;;;;;;;16.82;50.17;101130.25;5046301;28;1151;-54
2023/05/07 07:47:13;;;;;;;;;;;;;;;16.66;49.31;101123.00;5043650;28;1980;-51
2023/05/07 07:49:40;;;;;;;;;;;;;;;16.59;48.30;101128.75;5038328;28;2031;-50
2023/05/07 07:52:08;;;;;;;;;;;;;;;17.29;49.22;101142.28;5045359;28;1360;-54
2023/05/07 07:54:35;;;;;;;;;;;;;;;16.74;49.38;101139.00;5026681;28;1279;-52
2023/05/07 07:57:01;;;;;;;;;;;;;;;16.64;48.34;101139.75;5038119;28;1435;-48
2023/05/07 07:59:30;;;;;;;;;;;;;;;16.60;47.65;101133.16;5038029;28;1412;-51
2023/05/07 08:01:56;;;;;;;;;;;;;;;16.67;48.59;101136.47;5039619;28;1113;-47
2023/05/07 08:04:24;;;;;;;;;;;;;;;16.91;49.36;101128.69;5040172;28;1190;-48
2023/05/07 08:06:51;;;;;;;;;;;;;;;16.49;49.46;101143.22;5044805;28;1380;-48
2023/05/07 08:09:16;;;;;;;;;;;;;;;17.51;49.03;101142.09;5039609;28;1163;-49
2023/05/07 08:11:42;;;;;;;;;;;;;;;16.89;49.48;101136.34;5038035;28;1268;-51
2023/05/07 08:14:08;;;;;;;;;;;;;;;16.60;49.06;101138.63;5038279;28;1229;-51
2023/05/07 08:16:34;;;;;;;;;;;;;;;16.52;48.22;101136.38;5046675;28;1236;-50
2023/05/07 08:19:00;;;;;;;;;;;;;;;16.47;47.99;101141.84;5037787;28;1155;-49
2023/05/07 08:21:26;;;;;;;;;;;;;;;17.30;48.88;101135.72;5037718;28;1123;-48
2023/05/07 08:23:52;;;;;;;;;;;;;;;16.76;49.12;101132.16;5037504;28;1193;-50
2023/05/07 08:26:18;;;;;;;;;;;;;;;16.54;48.67;101134.22;5037858;28;1189;-48
2023/05/07 08:28:44;;;;;;;;;;;;;;;16.48;47.83;101130.59;5037518;28;1909;-50
2023/05/07 08:31:10;;;;;;;;;;;;;;;16.40;47.60;101129.16;5051069;28;1058;-47
2023/05/07 08:33:38;;;;;;;;;;;;;;;16.29;47.58;101135.69;5037833;28;1166;-48
2023/05/07 08:36:05;;;;;;;;;;;;;;;16.25;47.32;101131.81;5041738;28;1082;-47
2023/05/07 08:38:31;;;;;;;;;;;;;;;16.25;46.86;101131.81;5047859;28;1222;-54
2023/05/07 08:40:56;;;;;;;;;;;;;;;16.90;47.75;101123.44;5037354;28;1150;-48
2023/05/07 08:43:23;;;;;;;;;;;;;;;16.78;48.86;101126.38;5037569;28;1178;-51
2023/05/07 08:45:48;;;;;;;;;;;;;;;16.47;48.53;101134.44;5037467;28;1156;-48
2023/05/07 08:48:16;;;;;;;;;;;;;;;16.42;47.79;101137.13;5037521;28;1981;-48
2023/05/07 08:50:46;;;;;;;;;;;;;;;16.31;47.46;101133.47;5037339;28;1612;-53
2023/05/07 08:53:12;;;;;;;;;;;;;;;17.09;48.27;101132.88;5031435;28;1517;-52
2023/05/07 08:55:38;;;;;;;;;;;;;;;16.82;49.33;101138.50;5034677;28;1156;-50
2023/05/07 08:58:04;;;;;;;;;;;;;;;16.56;48.75;101126.53;5038524;28;1051;-49
2023/05/07 09:00:31;;;;;;;;;;;;;;;16.55;48.75;101136.69;5037190;28;1151;-52
2023/05/07 09:02:58;;;;;;;;;;;;;;;16.95;48.78;101134.47;5038216;28;1043;-48
2023/05/07 09:05:24;;;;;;;;;;;;;;;16.63;48.63;101129.03;5048145;28;1162;-57
2023/05/07 09:07:50;;;;;;;;;;;;;;;16.48;48.05;101130.59;5043517;28;1971;-50
2023/05/07 09:10:16;;;;;;;;;;;;;;;16.40;47.51;101126.44;5036359;28;1090;-47
2023/05/07 09:12:44;;;;;;;;;;;;;;;17.47;48.59;101126.41;5037019;28;1274;-52
2023/05/07 09:15:12;;;;;;;;;;;;;;;16.77;49.03;101122.81;5036482;28;1440;-54
2023/05/07 09:17:38;;;;;;;;;;;;;;;16.62;48.39;101119.16;5029882;28;1247;-49
2023/05/07 09:20:05;;;;;;;;;;;;;;;16.46;48.24;101121.78;5036658;28;1131;-52
2023/05/07 09:22:34;;;;;;;;;;;;;;;16.55;47.07;101120.22;5037926;28;1237;-52
2023/05/07 09:25:05;;;;;;;;;;;;;;;16.42;47.86;101115.19;5036454;28;1239;-47
2023/05/07 09:27:30;;;;;;;;;;;;;;;17.31;48.76;101112.63;5036644;28;1898;-49
2023/05/07 09:29:57;;;;;;;;;;;;;;;16.74;48.85;101122.50;5016354;28;1186;-49
2023/05/07 09:32:23;;;;;;;;;;;;;;;16.66;48.26;101107.38;5030254;28;1138;-49
2023/05/07 09:34:49;;;;;;;;;;;;;;;16.57;47.52;101104.28;5036764;28;1336;-47
2023/05/07 09:37:18;;;;;;;;;;;;;;;17.06;49.30;101100.44;5036581;28;1138;-49
2023/05/07 09:39:44;;;;;;;;;;;;;;;16.70;48.72;101100.25;5049360;28;1076;-51
2023/05/07 09:42:17;;;;;;;;;;;;;;;16.60;48.13;101095.53;5035990;28;1153;-53
2023/05/07 09:44:44;;;;;;;;;;;;;;;16.54;47.56;101091.09;5036413;28;1334;-50
2023/05/07 09:47:16;;;;;;;;;;;;;;;16.43;47.28;101095.69;5036393;28;1910;-53
2023/05/07 09:49:44;;;;;;;;;;;;;;;16.48;46.90;101092.19;5036488;28;1135;-52
2023/05/07 09:52:11;;;;;;;;;;;;;;;17.22;47.88;101090.34;5036031;28;1301;-49
2023/05/07 09:54:43;;;;;;;;;;;;;;;16.83;48.45;101092.63;5036344;28;1162;-49
2023/05/07 09:57:10;;;;;;;;;;;;;;;16.57;47.98;101095.25;5037142;28;1089;-48
2023/05/07 09:59:36;;;;;;;;;;;;;;;16.42;47.81;101112.44;5037190;28;1016;-50
2023/05/07 10:02:06;;;;;;;;;;;;;;;16.35;47.39;101101.69;5035700;28;1471;-50
2023/05/07 10:04:37;;;;;;;;;;;;;;;16.39;47.29;101100.06;5041330;28;1340;-47
2023/05/07 10:07:04;;;;;;;;;;;;;;;16.85;48.32;101098.69;5028805;28;1914;-50
2023/05/07 10:09:30;;;;;;;;;;;;;;;16.57;47.99;101095.25;5035867;28;1047;-48
2023/05/07 10:11:56;;;;;;;;;;;;;;;16.50;47.44;101083.69;5035889;28;1275;-47
2023/05/07 10:14:22;;;;;;;;;;;;;;;16.28;47.33;101086.56;5024222;28;1231;-49
2023/05/07 10:16:48;;;;;;;;;;;;;;;16.23;46.99;101098.31;5034994;28;1234;-49
2023/05/07 10:19:15;;;;;;;;;;;;;;;17.44;47.64;101100.28;5035982;28;1237;-46
2023/05/07 10:21:44;;;;;;;;;;;;;;;16.72;48.37;101109.06;5035558;28;1194;-49
2023/05/07 10:24:14;;;;;;;;;;;;;;;16.53;48.13;101094.94;5035762;28;1291;-49
2023/05/07 10:26:42;;;;;;;;;;;;;;;17.49;48.15;101093.97;5035233;28;1019;-47
2023/05/07 10:29:12;;;;;;;;;;;;;;;16.90;49.13;101087.72;5043186;28;1910;-53
2023/05/07 10:32:01;;;;;;;;;;;;;;;16.66;48.47;101090.91;5016442;28;1183;-51
2023/05/07 10:34:29;;;;;;;;;;;;;;;16.52;47.51;101071.34;5025735;28;1483;-50
2023/05/07 10:36:56;;;;;;;;;;;;;;;16.64;47.75;101057.38;5036562;28;1127;-47
2023/05/07 10:39:22;;;;;;;;;;;;;;;17.24;48.91;101068.91;5035013;28;2201;-48
2023/05/07 10:41:48;;;;;;;;;;;;;;;16.69;48.85;101079.38;5045272;28;1102;-49
2023/05/07 10:44:27;;;;;;;;;;;;;;;16.58;48.09;101080.44;5026477;28;1193;-48
2023/05/07 10:47:08;;;;;;;;;;;;;;;16.45;47.34;101080.88;5034966;28;1238;-49
2023/05/07 10:49:35;;;;;;;;;;;;;;;17.27;48.27;101082.09;5034992;28;1385;-48
2023/05/07 10:52:15;;;;;;;;;;;;;;;16.69;48.89;101082.13;5035249;28;1265;-53
2023/05/07 10:54:49;;;;;;;;;;;;;;;16.56;48.16;101085.34;5043919;28;1405;-51
2023/05/07 10:57:38;;;;;;;;;;;;;;;16.52;47.21;101081.47;5034888;28;1377;-51
2023/05/07 11:00:22;;;;;;;;;;;;;;;16.47;46.68;101092.44;5035926;28;1099;-52
2023/05/07 11:03:01;;;;;;;;;;;;;;;16.39;46.52;101089.09;5035257;28;1153;-51
2023/05/07 11:05:40;;;;;;;;;;;;;;;17.40;48.03;101096.44;5034584;28;877;-48
2023/05/07 11:08:26;;;;;;;;;;;;;;;16.72;48.52;101095.31;5031155;28;1977;-52
2023/05/07 11:11:03;;;;;;;;;;;;;;;16.46;48.20;101094.34;5035221;28;1123;-48
2023/05/07 11:13:41;;;;;;;;;;;;;;;16.37;47.41;101095.94;5034933;28;1304;-54
2023/05/07 11:16:20;;;;;;;;;;;;;;;16.28;46.79;101092.84;5034695;28;1459;-50
2023/05/07 11:18:49;;;;;;;;;;;;;;;17.33;48.00;101095.88;5044389;28;1204;-53
2023/05/07 11:21:36;;;;;;;;;;;;;;;16.71;48.66;101090.91;5034801;28;1214;-55
2023/05/07 11:24:40;;;;;;;;;;;;;;;16.40;47.89;101100.91;5025659;28;1241;-53
2023/05/07 11:27:07;;;;;;;;;;;;;;;16.38;47.18;101092.09;5018576;28;1977;-48
2023/05/07 11:29:32;;;;;;;;;;;;;;;16.43;47.22;101098.44;5034515;28;1148;-52
2023/05/07 11:32:05;;;;;;;;;;;;;;;17.24;48.46;101101.06;5034888;28;1357;-48
2023/05/07 11:34:37;;;;;;;;;;;;;;;16.58;48.52;101099.66;5034619;28;1297;-49
2023/05/07 11:37:03;;;;;;;;;;;;;;;17.47;48.77;101104.41;5034423;28;1059;-53
2023/05/07 11:39:39;;;;;;;;;;;;;;;16.92;49.16;101104.78;5040261;28;1211;-54
2023/05/07 11:42:05;;;;;;;;;;;;;;;16.57;48.80;101109.78;5042291;28;1146;-47
2023/05/07 11:44:43;;;;;;;;;;;;;;;16.61;47.63;101112.84;5035905;28;1509;-49
2023/05/07 11:47:09;;;;;;;;;;;;;;;16.38;47.30;101103.91;5065323;28;1917;-50
2023/05/07 11:49:34;;;;;;;;;;;;;;;16.34;46.78;101101.94;5075911;28;1097;-50
2023/05/07 11:52:00;;;;;;;;;;;;;;;16.21;46.67;101098.56;5075255;28;1046;-50
2023/05/07 11:54:26;;;;;;;;;;;;;;;16.24;46.34;101097.22;5081405;28;874;-50
2023/05/07 11:56:51;;;;;;;;;;;;;;;17.05;47.26;101107.03;5075231;28;1133;-52
2023/05/07 11:59:18;;;;;;;;;;;;;;;16.52;48.06;101104.28;5075791;28;1078;-51
2023/05/07 12:01:45;;;;;;;;;;;;;;;16.51;47.81;101107.28;5075635;28;1112;-48
2023/05/07 12:04:11;;;;;;;;;;;;;;;17.03;48.63;101103.75;5075908;28;1139;-48
2023/05/07 12:06:37;;;;;;;;;;;;;;;16.71;48.25;101099.16;5081759;28;1006;-48
2023/05/07 12:09:03;;;;;;;;;;;;;;;16.46;47.55;101088.84;5079402;28;1914;-48
2023/05/07 12:11:29;;;;;;;;;;;;;;;16.54;47.86;101101.28;5079024;28;1121;-48
2023/05/07 12:13:55;;;;;;;;;;;;;;;17.01;48.74;101110.59;5079338;28;1046;-51
2023/05/07 12:16:21;;;;;;;;;;;;;;;16.69;48.39;101103.25;5079207;28;1047;-53
2023/05/07 12:18:47;;;;;;;;;;;;;;;18.13;48.88;101093.50;5079010;28;861;-51
2023/05/07 12:21:12;;;;;;;;;;;;;;;17.19;49.73;101096.38;5078593;28;1050;-49
2023/05/07 12:23:38;;;;;;;;;;;;;;;16.90;49.10;101090.47;5079197;28;1050;-50
2023/05/07 12:26:04;;;;;;;;;;;;;;;16.75;47.98;101099.47;5078767;28;1093;-47
2023/05/07 12:28:30;;;;;;;;;;;;;;;16.44;47.89;101091.06;5061032;28;1914;-48
2023/05/07 12:30:56;;;;;;;;;;;;;;;16.47;47.29;101097.94;5079354;28;907;-51
2023/05/07 12:33:25;;;;;;;;;;;;;;;17.26;48.61;101096.13;5079098;28;1162;-48
2023/05/07 12:35:51;;;;;;;;;;;;;;;16.74;48.53;101093.13;5077675;28;1122;-48
2023/05/07 12:38:17;;;;;;;;;;;;;;;16.64;47.78;101095.00;5049013;28;1507;-50
2023/05/07 12:40:43;;;;;;;;;;;;;;;16.46;47.58;101093.53;5078471;28;1129;-50
2023/05/07 12:43:18;;;;;;;;;;;;;;;17.27;48.48;101087.59;5086706;28;928;-50
2023/05/07 12:45:44;;;;;;;;;;;;;;;16.75;48.48;101089.28;5078557;28;1145;-50
2023/05/07 12:48:10;;;;;;;;;;;;;;;16.58;48.01;101092.22;5078448;28;1909;-49